Time;durP1;ratioP1;P1;durP2;ratioP2;P2;SDS_P1;SDS_P2;PMS_P1;PMS_P2;Temp;Humidity;BMP_temperature;BMP_pressure;BME280_temperature;BME280_humidity;BME280_pressure;Samples;Min_cycle;Max_cycle;Signal;HPM_P1;HPM_P2
2023/08/27 00:00:13;;;;;;;2.23;2.00;;;;;;;;;;5051425;28;20244;-32
2023/08/27 00:02:40;;;;;;;3.87;2.60;;;;;;;;;;5043462;28;20205;-29
2023/08/27 00:05:09;;;;;;;2.83;1.80;;;;;;;;;;5053476;28;20204;-30
2023/08/27 00:07:37;;;;;;;1.77;1.67;;;;;;;;;;5042837;28;20723;-32
2023/08/27 00:10:05;;;;;;;3.40;2.20;;;;;;;;;;5052548;28;20208;-30
2023/08/27 00:12:32;;;;;;;2.27;1.80;;;;;;;;;;5057864;28;20212;-29
2023/08/27 00:14:59;;;;;;;4.33;2.17;;;;;;;;;;5047786;28;20219;-30
2023/08/27 00:17:27;;;;;;;2.90;1.93;;;;;;;;;;5049366;28;20288;-30
2023/08/27 00:19:54;;;;;;;2.90;2.30;;;;;;;;;;5052006;28;20200;-30
2023/08/27 00:22:21;;;;;;;3.00;2.30;;;;;;;;;;5044209;28;20200;-33
2023/08/27 00:24:49;;;;;;;2.20;2.00;;;;;;;;;;5050101;28;20206;-31
2023/08/27 00:27:17;;;;;;;5.37;2.03;;;;;;;;;;5054893;28;20203;-29
2023/08/27 00:29:46;;;;;;;4.00;2.40;;;;;;;;;;5051135;28;20241;-30
2023/08/27 00:32:13;;;;;;;3.03;2.73;;;;;;;;;;5046319;28;20318;-29
2023/08/27 00:34:40;;;;;;;2.27;2.07;;;;;;;;;;5055915;28;20672;-31
2023/08/27 00:37:07;;;;;;;3.73;2.00;;;;;;;;;;5050494;28;20216;-32
2023/08/27 00:39:36;;;;;;;4.50;2.50;;;;;;;;;;5054525;28;20719;-31
2023/08/27 00:42:05;;;;;;;5.57;2.27;;;;;;;;;;5056197;28;20234;-32
2023/08/27 00:44:33;;;;;;;3.30;2.60;;;;;;;;;;5050410;28;20301;-33
2023/08/27 00:47:00;;;;;;;4.90;2.67;;;;;;;;;;5044221;28;20570;-31
2023/08/27 00:49:27;;;;;;;4.20;3.30;;;;;;;;;;5052892;28;20203;-33
2023/08/27 00:51:55;;;;;;;4.13;2.73;;;;;;;;;;5043347;28;20230;-29
2023/08/27 00:54:22;;;;;;;4.90;2.27;;;;;;;;;;5049541;28;20202;-28
2023/08/27 00:56:49;;;;;;;3.50;2.20;;;;;;;;;;5052932;28;20230;-32
2023/08/27 00:59:18;;;;;;;2.40;2.20;;;;;;;;;;5050888;28;20203;-30
2023/08/27 01:01:45;;;;;;;3.67;2.27;;;;;;;;;;5041022;28;20215;-30
2023/08/27 01:04:12;;;;;;;5.87;2.60;;;;;;;;;;5053440;28;20211;-31
2023/08/27 01:06:40;;;;;;;1.93;1.60;;;;;;;;;;5047675;28;20203;-30
2023/08/27 01:09:10;;;;;;;2.63;2.30;;;;;;;;;;5051398;28;20208;-29
2023/08/27 01:11:41;;;;;;;3.60;2.30;;;;;;;;;;5053729;28;20230;-32
2023/08/27 01:14:09;;;;;;;2.40;2.20;;;;;;;;;;5051156;28;20211;-32
2023/08/27 01:16:38;;;;;;;2.87;1.90;;;;;;;;;;5044885;28;20232;-32
2023/08/27 01:19:07;;;;;;;2.10;2.00;;;;;;;;;;5051106;28;20209;-31
2023/08/27 01:21:36;;;;;;;2.43;1.90;;;;;;;;;;5055933;28;20361;-31
2023/08/27 01:24:03;;;;;;;1.80;1.70;;;;;;;;;;5046911;28;20212;-29
2023/08/27 01:26:33;;;;;;;2.37;1.80;;;;;;;;;;5061800;28;20285;-31
2023/08/27 01:29:06;;;;;;;2.93;1.80;;;;;;;;;;5051177;28;20217;-29
2023/08/27 01:31:36;;;;;;;6.07;2.20;;;;;;;;;;5038611;28;20224;-31
2023/08/27 01:34:05;;;;;;;1.70;1.60;;;;;;;;;;5048234;28;20203;-28
2023/08/27 01:36:35;;;;;;;3.20;2.20;;;;;;;;;;5051610;28;20235;-30
2023/08/27 01:39:04;;;;;;;4.37;2.10;;;;;;;;;;5042174;28;20208;-31
2023/08/27 01:41:31;;;;;;;2.80;1.97;;;;;;;;;;5053313;28;20215;-32
2023/08/27 01:43:59;;;;;;;3.40;2.40;;;;;;;;;;5049319;28;20204;-32
2023/08/27 01:46:26;;;;;;;2.70;2.00;;;;;;;;;;5046676;28;20206;-33
2023/08/27 01:48:53;;;;;;;3.63;2.70;;;;;;;;;;5048397;28;20209;-31
2023/08/27 01:51:20;;;;;;;4.33;2.37;;;;;;;;;;5048220;28;20254;-31
2023/08/27 01:53:47;;;;;;;2.97;2.00;;;;;;;;;;5038443;28;20197;-29
2023/08/27 01:56:15;;;;;;;3.53;2.20;;;;;;;;;;5053805;28;20226;-30
2023/08/27 01:58:42;;;;;;;5.17;3.87;;;;;;;;;;5043348;28;20217;-30
2023/08/27 02:01:10;;;;;;;2.47;2.27;;;;;;;;;;5043233;28;20221;-31
2023/08/27 02:03:37;;;;;;;4.27;1.90;;;;;;;;;;5048854;28;20209;-29
2023/08/27 02:06:05;;;;;;;2.00;1.90;;;;;;;;;;5045307;28;20197;-32
2023/08/27 02:08:32;;;;;;;3.53;1.97;;;;;;;;;;5038834;28;20214;-31
2023/08/27 02:11:00;;;;;;;1.93;1.83;;;;;;;;;;5045114;28;20222;-30
2023/08/27 02:13:28;;;;;;;2.47;2.03;;;;;;;;;;5055654;28;20677;-28
2023/08/27 02:15:55;;;;;;;1.47;1.37;;;;;;;;;;5037265;28;20559;-33
2023/08/27 02:18:22;;;;;;;2.57;1.83;;;;;;;;;;5047110;28;20537;-32
2023/08/27 02:20:49;;;;;;;2.87;2.67;;;;;;;;;;5068103;28;20219;-31
2023/08/27 02:23:17;;;;;;;3.97;2.47;;;;;;;;;;5043797;28;20199;-31
2023/08/27 02:25:44;;;;;;;3.07;2.37;;;;;;;;;;5047402;28;20531;-29
2023/08/27 02:28:11;;;;;;;3.47;1.90;;;;;;;;;;5053330;28;20196;-29
2023/08/27 02:30:39;;;;;;;3.63;2.00;;;;;;;;;;5049537;28;20218;-30
2023/08/27 02:33:06;;;;;;;3.30;1.87;;;;;;;;;;5053684;28;20196;-30
2023/08/27 02:35:33;;;;;;;2.43;2.13;;;;;;;;;;5065409;28;20214;-29
2023/08/27 02:38:01;;;;;;;3.83;2.30;;;;;;;;;;5047634;28;20223;-33
2023/08/27 02:40:28;;;;;;;3.03;1.87;;;;;;;;;;5049249;28;20228;-29
2023/08/27 02:42:55;;;;;;;8.50;2.00;;;;;;;;;;5053147;28;20195;-30
2023/08/27 02:45:22;;;;;;;2.67;2.20;;;;;;;;;;5052031;28;20294;-31
2023/08/27 02:47:50;;;;;;;4.40;2.23;;;;;;;;;;5048439;28;20657;-31
2023/08/27 02:50:17;;;;;;;2.67;2.07;;;;;;;;;;5061299;28;20244;-32
2023/08/27 02:52:46;;;;;;;2.47;2.03;;;;;;;;;;5046288;28;20203;-32
2023/08/27 02:55:13;;;;;;;7.10;2.13;;;;;;;;;;5048313;28;20203;-31
2023/08/27 02:57:40;;;;;;;6.30;2.37;;;;;;;;;;5058425;28;20554;-31
2023/08/27 03:00:10;;;;;;;3.27;2.33;;;;;;;;;;5046638;28;20207;-30
2023/08/27 03:02:37;;;;;;;2.60;1.80;;;;;;;;;;5046015;28;20203;-31
2023/08/27 03:05:06;;;;;;;9.97;3.17;;;;;;;;;;5061790;28;20266;-32
2023/08/27 03:07:33;;;;;;;6.77;3.37;;;;;;;;;;5046026;28;20229;-31
2023/08/27 03:10:00;;;;;;;4.27;3.40;;;;;;;;;;5054959;28;20198;-29
2023/08/27 03:12:27;;;;;;;4.23;3.83;;;;;;;;;;5068284;28;20208;-31
2023/08/27 03:14:54;;;;;;;4.13;3.67;;;;;;;;;;5138840;22;20235;-30
2023/08/27 03:17:22;;;;;;;3.13;2.40;;;;;;;;;;5045424;28;20229;-31
2023/08/27 03:19:49;;;;;;;3.37;3.07;;;;;;;;;;5055346;28;20238;-29
2023/08/27 03:22:17;;;;;;;3.43;3.13;;;;;;;;;;5047769;28;20232;-30
2023/08/27 03:24:44;;;;;;;2.20;2.10;;;;;;;;;;5054077;28;20199;-30
2023/08/27 03:27:11;;;;;;;6.30;4.13;;;;;;;;;;5051928;28;20198;-32
2023/08/27 03:29:38;;;;;;;4.67;3.27;;;;;;;;;;5053349;28;20196;-28
2023/08/27 03:32:05;;;;;;;4.90;3.70;;;;;;;;;;5040836;28;20223;-30
2023/08/27 03:34:33;;;;;;;3.93;3.63;;;;;;;;;;5062684;28;20278;-30
2023/08/27 03:37:00;;;;;;;6.53;4.07;;;;;;;;;;5051627;28;20226;-32
2023/08/27 03:39:31;;;;;;;6.20;3.20;;;;;;;;;;5052294;28;20247;-31
2023/08/27 03:41:58;;;;;;;4.80;4.40;;;;;;;;;;5059014;28;20218;-30
2023/08/27 03:44:26;;;;;;;3.20;2.90;;;;;;;;;;5055092;28;20203;-29
2023/08/27 03:46:53;;;;;;;6.40;3.80;;;;;;;;;;5050532;28;20194;-33
2023/08/27 03:49:20;;;;;;;4.20;2.87;;;;;;;;;;5062394;28;20230;-27
2023/08/27 03:51:47;;;;;;;5.13;2.97;;;;;;;;;;5049848;28;20223;-30
2023/08/27 03:54:14;;;;;;;3.53;3.07;;;;;;;;;;5048050;28;20231;-31
2023/08/27 03:56:43;;;;;;;3.77;3.30;;;;;;;;;;5045474;28;20297;-32
2023/08/27 03:59:10;;;;;;;3.73;3.43;;;;;;;;;;5054227;28;20206;-31
2023/08/27 04:01:37;;;;;;;3.53;2.87;;;;;;;;;;5047909;28;20515;-30
2023/08/27 04:04:04;;;;;;;4.77;3.77;;;;;;;;;;5054324;28;20196;-32
2023/08/27 04:06:31;;;;;;;4.80;3.30;;;;;;;;;;5068399;28;20190;-28
2023/08/27 04:08:58;;;;;;;2.20;2.00;;;;;;;;;;5048207;28;20199;-29
2023/08/27 04:11:26;;;;;;;2.20;2.10;;;;;;;;;;5054170;28;20219;-29
2023/08/27 04:13:54;;;;;;;3.97;2.80;;;;;;;;;;5054799;28;20199;-30
2023/08/27 04:16:21;;;;;;;4.70;3.77;;;;;;;;;;5052258;28;20223;-33
2023/08/27 04:18:48;;;;;;;2.40;2.20;;;;;;;;;;5063786;28;20262;-29
2023/08/27 04:21:15;;;;;;;7.10;3.43;;;;;;;;;;5073735;28;20287;-29
2023/08/27 04:23:42;;;;;;;3.87;3.57;;;;;;;;;;5053711;28;20233;-28
2023/08/27 04:26:09;;;;;;;4.60;2.73;;;;;;;;;;5065356;28;20199;-33
2023/08/27 04:28:37;;;;;;;4.23;3.00;;;;;;;;;;5060980;28;20203;-29
2023/08/27 04:31:05;;;;;;;2.97;2.60;;;;;;;;;;5051849;28;20253;-32
2023/08/27 04:33:33;;;;;;;2.77;2.33;;;;;;;;;;5056280;28;20227;-29
2023/08/27 04:36:00;;;;;;;3.57;3.03;;;;;;;;;;5046451;28;20223;-31
2023/08/27 04:38:27;;;;;;;2.70;2.23;;;;;;;;;;5040390;28;20214;-30
2023/08/27 04:40:54;;;;;;;3.73;3.43;;;;;;;;;;5056415;28;20215;-33
2023/08/27 04:43:22;;;;;;;3.10;2.73;;;;;;;;;;5072226;28;20433;-31
2023/08/27 04:45:49;;;;;;;3.47;3.17;;;;;;;;;;5066765;28;20206;-31
2023/08/27 04:48:17;;;;;;;3.87;2.73;;;;;;;;;;5052813;28;20213;-31
2023/08/27 04:50:45;;;;;;;4.67;3.13;;;;;;;;;;5059961;28;20221;-32
2023/08/27 04:53:12;;;;;;;8.03;3.20;;;;;;;;;;5044094;28;20210;-30
2023/08/27 04:55:39;;;;;;;4.90;4.03;;;;;;;;;;5052778;28;20197;-28
2023/08/27 04:58:08;;;;;;;4.70;3.77;;;;;;;;;;5056818;28;20228;-31
2023/08/27 05:00:35;;;;;;;4.40;4.00;;;;;;;;;;5053591;28;20226;-31
2023/08/27 05:03:02;;;;;;;4.93;3.43;;;;;;;;;;5039794;28;20207;-34
2023/08/27 05:05:31;;;;;;;3.77;3.47;;;;;;;;;;5053410;28;20202;-29
2023/08/27 05:07:58;;;;;;;4.73;3.63;;;;;;;;;;5047384;28;20200;-30
2023/08/27 05:10:25;;;;;;;3.77;3.43;;;;;;;;;;5046607;28;20222;-27
2023/08/27 05:12:52;;;;;;;4.67;3.67;;;;;;;;;;5052219;28;20518;-30
2023/08/27 05:15:21;;;;;;;3.40;2.80;;;;;;;;;;5048266;28;20216;-29
2023/08/27 05:17:48;;;;;;;4.50;3.03;;;;;;;;;;5067817;28;20218;-29
2023/08/27 05:20:15;;;;;;;4.40;3.10;;;;;;;;;;5064746;28;20246;-32
2023/08/27 05:22:44;;;;;;;4.60;4.20;;;;;;;;;;5053036;28;20195;-32
2023/08/27 05:25:11;;;;;;;5.87;4.40;;;;;;;;;;5053393;28;20200;-29
2023/08/27 05:27:43;;;;;;;4.10;3.80;;;;;;;;;;5060620;28;20206;-28
2023/08/27 05:30:11;;;;;;;4.03;3.70;;;;;;;;;;5052046;28;20212;-30
2023/08/27 05:32:38;;;;;;;7.23;4.47;;;;;;;;;;5053106;28;20208;-31
2023/08/27 05:35:05;;;;;;;4.60;2.90;;;;;;;;;;5056882;28;20205;-29
2023/08/27 05:37:33;;;;;;;3.83;3.50;;;;;;;;;;5045425;28;20219;-27
2023/08/27 05:40:01;;;;;;;5.10;4.37;;;;;;;;;;5061928;28;20198;-31
2023/08/27 05:42:28;;;;;;;2.50;2.30;;;;;;;;;;5064390;28;20196;-30
2023/08/27 05:44:56;;;;;;;3.13;2.53;;;;;;;;;;5069656;28;20202;-32
2023/08/27 05:47:23;;;;;;;2.50;2.30;;;;;;;;;;5052873;28;20209;-27
2023/08/27 05:49:50;;;;;;;3.90;3.57;;;;;;;;;;5066521;28;20298;-28
2023/08/27 05:52:30;;;;;;;4.47;4.07;;;;;;;;;;5051416;28;20209;-33
2023/08/27 05:54:58;;;;;;;3.77;3.47;;;;;;;;;;5050465;28;20203;-30
2023/08/27 05:57:28;;;;;;;6.73;4.57;;;;;;;;;;5060455;28;20246;-30
2023/08/27 05:59:56;;;;;;;4.83;3.70;;;;;;;;;;5052403;28;20203;-29
2023/08/27 06:02:24;;;;;;;4.63;4.10;;;;;;;;;;5043835;28;20198;-28
2023/08/27 06:04:51;;;;;;;4.70;4.30;;;;;;;;;;5056839;28;20237;-28
2023/08/27 06:07:18;;;;;;;6.97;4.37;;;;;;;;;;5047871;28;20261;-31
2023/08/27 06:10:02;;;;;;;7.40;4.43;;;;;;;;;;5057257;28;20224;-30
2023/08/27 06:12:30;;;;;;;6.77;4.67;;;;;;;;;;5068698;28;20190;-29
2023/08/27 06:14:57;;;;;;;4.13;3.77;;;;;;;;;;5077817;28;20222;-30
2023/08/27 06:17:24;;;;;;;4.43;4.03;;;;;;;;;;5059117;28;20321;-30
2023/08/27 06:23:15;;;;;;;4.07;3.20;;;;;;;;;;5058080;28;20176;-29
2023/08/27 06:25:42;;;;;;;3.93;3.63;;;;;;;;;;5069196;28;20282;-28
2023/08/27 06:28:11;;;;;;;3.23;2.83;;;;;;;;;;5067129;28;20206;-30
2023/08/27 06:30:41;;;;;;;4.27;2.97;;;;;;;;;;5050849;28;20229;-30
2023/08/27 06:33:09;;;;;;;3.93;3.03;;;;;;;;;;5058416;28;20210;-31
2023/08/27 06:35:39;;;;;;;3.83;3.30;;;;;;;;;;5064142;28;20226;-29
2023/08/27 06:38:06;;;;;;;5.40;3.60;;;;;;;;;;5053777;28;20316;-29
2023/08/27 06:40:33;;;;;;;3.70;3.33;;;;;;;;;;5051188;28;20231;-28
2023/08/27 06:43:00;;;;;;;3.67;3.27;;;;;;;;;;5056444;28;20209;-33
2023/08/27 06:45:29;;;;;;;4.03;3.00;;;;;;;;;;5054020;28;20208;-32
2023/08/27 06:47:56;;;;;;;3.53;3.23;;;;;;;;;;5044271;28;20256;-30
2023/08/27 06:50:23;;;;;;;3.50;3.10;;;;;;;;;;5061246;28;20225;-31
2023/08/27 06:52:50;;;;;;;5.07;3.70;;;;;;;;;;5049017;28;20201;-27
2023/08/27 06:55:18;;;;;;;4.13;3.73;;;;;;;;;;5052429;28;20212;-31
2023/08/27 06:57:45;;;;;;;3.60;3.20;;;;;;;;;;5068194;28;20271;-28
2023/08/27 07:00:12;;;;;;;3.70;3.23;;;;;;;;;;5064108;28;20239;-29
2023/08/27 07:02:43;;;;;;;3.23;2.90;;;;;;;;;;5053446;28;20202;-29
2023/08/27 07:05:13;;;;;;;5.17;3.03;;;;;;;;;;5058459;28;20199;-32
2023/08/27 07:07:44;;;;;;;3.90;2.77;;;;;;;;;;5046622;28;20206;-32
2023/08/27 07:10:12;;;;;;;2.80;2.60;;;;;;;;;;5063160;28;20224;-29
2023/08/27 07:12:40;;;;;;;2.97;2.50;;;;;;;;;;5068596;28;20202;-28
2023/08/27 07:15:08;;;;;;;4.57;2.80;;;;;;;;;;5062984;28;20203;-31
2023/08/27 07:17:38;;;;;;;2.83;2.60;;;;;;;;;;5038549;28;20223;-32
2023/08/27 07:20:09;;;;;;;4.30;3.10;;;;;;;;;;5071080;28;20198;-29
2023/08/27 07:22:36;;;;;;;2.33;2.13;;;;;;;;;;5047990;28;20217;-32
2023/08/27 07:25:03;;;;;;;4.27;2.40;;;;;;;;;;5051697;28;20203;-28
2023/08/27 07:27:30;;;;;;;2.50;2.40;;;;;;;;;;5053150;28;20240;-31
2023/08/27 07:29:57;;;;;;;2.93;2.30;;;;;;;;;;5054991;28;20202;-32
2023/08/27 07:32:24;;;;;;;4.47;1.90;;;;;;;;;;5054590;28;20211;-28
2023/08/27 07:34:51;;;;;;;2.63;2.40;;;;;;;;;;5039624;28;20217;-27
2023/08/27 07:37:21;;;;;;;2.37;2.17;;;;;;;;;;5049629;28;20228;-29
2023/08/27 07:39:49;;;;;;;4.30;2.23;;;;;;;;;;5053979;28;20199;-31
2023/08/27 07:42:16;;;;;;;3.33;1.93;;;;;;;;;;5066261;28;20218;-30
2023/08/27 07:44:43;;;;;;;2.93;2.20;;;;;;;;;;5074900;28;20207;-30
2023/08/27 07:47:10;;;;;;;2.53;2.10;;;;;;;;;;5051769;28;20207;-30
2023/08/27 07:49:37;;;;;;;2.17;2.00;;;;;;;;;;5064109;28;20192;-28
2023/08/27 07:52:05;;;;;;;2.73;2.00;;;;;;;;;;5050810;28;20296;-29
2023/08/27 07:54:33;;;;;;;2.10;1.90;;;;;;;;;;5055806;28;20207;-34
2023/08/27 07:57:00;;;;;;;2.13;1.93;;;;;;;;;;5067804;28;20229;-38
2023/08/27 07:59:28;;;;;;;2.13;1.70;;;;;;;;;;5050248;28;20214;-35
2023/08/27 08:01:55;;;;;;;1.57;1.47;;;;;;;;;;5057311;28;20232;-36
2023/08/27 08:04:22;;;;;;;1.83;1.73;;;;;;;;;;5073061;28;20205;-40
2023/08/27 08:06:49;;;;;;;2.17;1.57;;;;;;;;;;5063964;28;20187;-33
2023/08/27 08:09:16;;;;;;;2.53;2.10;;;;;;;;;;5045845;28;20212;-39
2023/08/27 08:11:45;;;;;;;1.80;1.70;;;;;;;;;;5074354;28;20214;-32
2023/08/27 08:14:12;;;;;;;2.30;2.10;;;;;;;;;;5074834;28;20198;-32
2023/08/27 08:16:39;;;;;;;2.60;2.40;;;;;;;;;;5050215;28;20237;-32
2023/08/27 08:19:06;;;;;;;4.13;2.30;;;;;;;;;;5045118;28;20226;-34
2023/08/27 08:21:33;;;;;;;3.07;1.93;;;;;;;;;;5050807;28;20214;-38
2023/08/27 08:24:00;;;;;;;2.37;2.17;;;;;;;;;;5054326;28;20203;-40
2023/08/27 08:26:28;;;;;;;4.03;2.23;;;;;;;;;;5061385;28;20213;-39
2023/08/27 08:28:56;;;;;;;2.40;2.17;;;;;;;;;;5053933;28;20244;-35
2023/08/27 08:31:23;;;;;;;2.63;2.43;;;;;;;;;;5046876;28;20223;-35
2023/08/27 08:33:51;;;;;;;1.77;1.67;;;;;;;;;;5063878;28;20198;-34
2023/08/27 08:36:18;;;;;;;5.93;2.17;;;;;;;;;;5056716;28;20200;-38
2023/08/27 08:38:45;;;;;;;1.90;1.70;;;;;;;;;;5060464;28;20205;-37
2023/08/27 08:41:12;;;;;;;3.53;2.00;;;;;;;;;;5074841;28;20222;-42
2023/08/27 08:43:47;;;;;;;2.07;1.70;;;;;;;;;;5075270;28;20200;-41
2023/08/27 08:46:17;;;;;;;3.50;2.00;;;;;;;;;;5070681;28;20205;-40
2023/08/27 08:48:45;;;;;;;1.87;1.70;;;;;;;;;;5066499;28;20218;-36
2023/08/27 08:51:12;;;;;;;2.20;1.60;;;;;;;;;;5065560;28;20312;-37
2023/08/27 08:53:41;;;;;;;1.93;1.50;;;;;;;;;;5047817;28;20203;-34
2023/08/27 08:56:12;;;;;;;1.80;1.70;;;;;;;;;;5061542;28;20459;-35
2023/08/27 08:58:41;;;;;;;1.50;1.33;;;;;;;;;;5053541;28;20213;-34
2023/08/27 09:01:09;;;;;;;1.80;1.70;;;;;;;;;;5054147;28;20230;-44
2023/08/27 09:03:39;;;;;;;1.70;1.60;;;;;;;;;;5068508;28;20196;-35
2023/08/27 09:06:06;;;;;;;2.30;1.70;;;;;;;;;;5053434;28;20202;-39
2023/08/27 09:08:35;;;;;;;2.00;1.70;;;;;;;;;;5044067;28;20200;-38
2023/08/27 09:11:03;;;;;;;1.60;1.50;;;;;;;;;;5068553;28;20230;-35
2023/08/27 09:13:30;;;;;;;2.10;1.57;;;;;;;;;;5053506;28;20195;-38
2023/08/27 09:15:57;;;;;;;1.60;1.50;;;;;;;;;;5053332;28;20208;-34
2023/08/27 09:18:24;;;;;;;1.50;1.30;;;;;;;;;;5051858;28;20287;-38
2023/08/27 09:26:00;;;;;;;1.87;1.33;;;;;;;;;;5058118;28;20247;-28
2023/08/27 09:28:27;;;;;;;1.57;1.20;;;;;;;;;;5064845;28;20201;-31
2023/08/27 09:30:54;;;;;;;2.60;1.30;;;;;;;;;;5044877;28;20230;-31
2023/08/27 09:33:21;;;;;;;1.60;1.50;;;;;;;;;;5031207;28;20210;-30
2023/08/27 09:35:49;;;;;;;1.73;1.63;;;;;;;;;;5045003;28;20208;-29
2023/08/27 09:38:16;;;;;;;1.60;1.50;;;;;;;;;;5036066;28;20495;-31
2023/08/27 09:40:43;;;;;;;1.53;1.37;;;;;;;;;;5040741;28;20219;-29
2023/08/27 09:43:13;;;;;;;2.43;1.40;;;;;;;;;;5050002;28;20222;-32
2023/08/27 09:45:40;;;;;;;1.50;1.40;;;;;;;;;;5046248;28;20204;-29
2023/08/27 09:48:07;;;;;;;1.60;1.50;;;;;;;;;;5029851;28;20205;-32
2023/08/27 09:50:34;;;;;;;2.43;1.50;;;;;;;;;;5033922;28;20633;-33
2023/08/27 09:53:10;;;;;;;1.97;1.60;;;;;;;;;;5041579;28;20214;-32
2023/08/27 09:55:38;;;;;;;1.70;1.57;;;;;;;;;;5038323;28;20203;-31
2023/08/27 09:58:05;;;;;;;1.60;1.43;;;;;;;;;;5041553;28;20223;-32
2023/08/27 10:00:35;;;;;;;1.40;1.30;;;;;;;;;;5034293;28;20231;-29
2023/08/27 10:03:02;;;;;;;1.53;1.20;;;;;;;;;;5038509;28;20208;-29
2023/08/27 10:05:30;;;;;;;1.80;1.67;;;;;;;;;;5032663;28;20208;-33
2023/08/27 10:07:57;;;;;;;2.07;1.50;;;;;;;;;;5038993;28;20207;-33
2023/08/27 10:10:25;;;;;;;3.30;1.50;;;;;;;;;;5047420;28;20689;-31
2023/08/27 10:12:53;;;;;;;1.40;1.30;;;;;;;;;;5047921;28;20533;-27
2023/08/27 10:15:20;;;;;;;1.87;1.23;;;;;;;;;;5052184;28;20212;-28
2023/08/27 10:17:50;;;;;;;1.47;1.37;;;;;;;;;;5045735;28;20675;-30
2023/08/27 10:20:18;;;;;;;1.93;1.20;;;;;;;;;;5049641;28;20228;-30
2023/08/27 10:22:46;;;;;;;1.67;1.50;;;;;;;;;;5039479;28;20211;-32
2023/08/27 10:25:14;;;;;;;2.47;1.50;;;;;;;;;;5040219;28;20221;-31
2023/08/27 10:27:41;;;;;;;2.23;1.33;;;;;;;;;;5048777;28;20304;-31
2023/08/27 10:30:10;;;;;;;2.53;1.23;;;;;;;;;;5049132;28;20223;-29
2023/08/27 10:32:37;;;;;;;2.17;1.43;;;;;;;;;;5039814;28;20300;-30
2023/08/27 10:35:06;;;;;;;1.43;1.30;;;;;;;;;;5046742;28;20223;-32
2023/08/27 10:37:34;;;;;;;1.57;1.37;;;;;;;;;;5041534;28;20205;-29
2023/08/27 10:40:08;;;;;;;1.43;1.33;;;;;;;;;;5041035;28;20593;-28
2023/08/27 10:42:37;;;;;;;1.80;1.50;;;;;;;;;;5048691;28;20211;-31
2023/08/27 10:45:14;;;;;;;1.37;1.27;;;;;;;;;;5048906;28;20244;-32
2023/08/27 11:03:23;;;;;;;1.33;1.27;;;;;;;;;;5053531;28;20563;-39
2023/08/27 11:06:11;;;;;;;1.17;1.13;;;;;;;;;;5045170;28;20203;-41
2023/08/27 11:08:39;;;;;;;2.67;1.70;;;;;;;;;;5032063;28;20215;-36
2023/08/27 11:11:12;;;;;;;1.30;1.20;;;;;;;;;;5043642;28;20234;-39
2023/08/27 11:13:41;;;;;;;2.70;1.13;;;;;;;;;;5040997;28;20239;-37
2023/08/27 11:16:13;;;;;;;1.57;1.27;;;;;;;;;;5029553;28;20294;-39
2023/08/27 11:18:58;;;;;;;1.13;1.13;;;;;;;;;;5050128;28;20193;-40
2023/08/27 11:21:40;;;;;;;2.70;1.33;;;;;;;;;;5047305;28;20190;-41
2023/08/27 11:24:14;;;;;;;1.83;1.13;;;;;;;;;;5034937;28;20228;-39
2023/08/27 11:26:42;;;;;;;1.00;1.00;;;;;;;;;;5031240;28;20200;-36
2023/08/27 11:29:09;;;;;;;1.30;1.20;;;;;;;;;;5030347;28;20212;-37
2023/08/27 11:31:37;;;;;;;1.53;1.40;;;;;;;;;;5029990;28;20223;-37
2023/08/27 11:34:06;;;;;;;2.37;1.40;;;;;;;;;;5030597;28;20234;-40
2023/08/27 11:36:33;;;;;;;1.17;0.90;;;;;;;;;;5032853;28;20199;-40
2023/08/27 11:39:01;;;;;;;1.70;1.17;;;;;;;;;;5036892;28;20293;-42
2023/08/27 11:41:34;;;;;;;1.83;1.40;;;;;;;;;;5045452;28;20212;-39
2023/08/27 11:44:02;;;;;;;1.20;1.10;;;;;;;;;;5037833;28;20228;-41
2023/08/27 11:46:30;;;;;;;1.23;1.13;;;;;;;;;;5038558;28;20262;-40
2023/08/27 11:48:57;;;;;;;1.30;1.20;;;;;;;;;;5046310;28;20200;-41
2023/08/27 11:51:25;;;;;;;2.10;1.50;;;;;;;;;;5044437;28;20226;-42
2023/08/27 11:53:52;;;;;;;1.53;1.43;;;;;;;;;;5033986;28;20251;-38
2023/08/27 11:56:20;;;;;;;1.40;1.30;;;;;;;;;;5045693;28;20300;-40
2023/08/27 11:58:50;;;;;;;1.90;1.40;;;;;;;;;;5046099;28;20215;-35
2023/08/27 12:01:17;;;;;;;1.40;1.30;;;;;;;;;;5042767;28;20210;-42
2023/08/27 12:03:44;;;;;;;1.13;1.03;;;;;;;;;;5029002;28;20308;-36
2023/08/27 12:06:15;;;;;;;1.60;1.30;;;;;;;;;;5032620;28;20198;-42
2023/08/27 12:08:44;;;;;;;2.43;1.20;;;;;;;;;;5018540;28;20297;-40
2023/08/27 12:11:12;;;;;;;2.00;1.20;;;;;;;;;;5029511;28;20331;-41
2023/08/27 12:13:41;;;;;;;2.40;1.20;;;;;;;;;;5033295;28;20232;-36
2023/08/27 12:16:09;;;;;;;1.30;1.20;;;;;;;;;;5026320;28;20217;-39
2023/08/27 12:18:36;;;;;;;1.40;1.30;;;;;;;;;;5021889;28;20291;-37
2023/08/27 12:21:07;;;;;;;4.00;1.40;;;;;;;;;;5032724;28;20205;-35
2023/08/27 12:23:36;;;;;;;1.40;1.20;;;;;;;;;;5022509;28;20247;-39
2023/08/27 12:26:04;;;;;;;1.47;1.13;;;;;;;;;;5032309;28;20212;-43
2023/08/27 12:28:33;;;;;;;1.23;1.00;;;;;;;;;;5032630;28;20197;-36
2023/08/27 12:31:00;;;;;;;1.40;1.30;;;;;;;;;;5028137;28;20825;-42
2023/08/27 12:33:39;;;;;;;1.50;1.40;;;;;;;;;;5022526;28;20224;-37
2023/08/27 12:36:06;;;;;;;3.40;1.37;;;;;;;;;;5014733;28;20264;-36
2023/08/27 12:38:34;;;;;;;1.33;1.17;;;;;;;;;;5023493;28;20209;-42
2023/08/27 12:41:01;;;;;;;4.13;1.37;;;;;;;;;;5020501;28;20208;-35
2023/08/27 12:43:30;;;;;;;2.87;1.60;;;;;;;;;;5026136;28;20243;-35
2023/08/27 12:45:57;;;;;;;2.47;1.60;;;;;;;;;;5026827;28;20209;-36
2023/08/27 12:48:24;;;;;;;1.47;1.13;;;;;;;;;;5029943;28;20221;-36
2023/08/27 12:50:51;;;;;;;1.47;1.20;;;;;;;;;;5032495;28;20205;-35
2023/08/27 12:53:18;;;;;;;2.30;1.43;;;;;;;;;;5022483;28;20587;-36
2023/08/27 12:55:46;;;;;;;2.27;1.23;;;;;;;;;;5031448;28;20296;-42
2023/08/27 12:58:13;;;;;;;1.47;1.10;;;;;;;;;;5032498;28;20199;-35
2023/08/27 13:25:07;;;;;;;1.30;1.20;;;;;;;;;;5127418;27;20623;-39
2023/08/27 13:27:35;;;;;;;1.57;1.30;;;;;;;;;;5106810;28;20202;-37
2023/08/27 13:30:02;;;;;;;3.53;1.40;;;;;;;;;;5099645;28;20218;-37
2023/08/27 13:32:29;;;;;;;1.33;1.23;;;;;;;;;;5091999;28;20212;-39
2023/08/27 13:51:57;;;;;;;1.30;1.20;;;;;;;;;;5108641;27;20643;-39
2023/08/27 13:54:24;;;;;;;1.60;1.33;;;;;;;;;;5095115;28;20213;-39
2023/08/27 13:56:51;;;;;;;1.13;1.10;;;;;;;;;;5113418;28;20337;-40
2023/08/27 13:59:18;;;;;;;1.30;1.17;;;;;;;;;;5103881;28;20214;-39
2023/08/27 14:01:45;;;;;;;2.00;1.20;;;;;;;;;;5093650;28;20226;-39
2023/08/27 14:04:12;;;;;;;2.40;1.40;;;;;;;;;;5102848;28;20301;-40
2023/08/27 14:06:39;;;;;;;1.40;1.10;;;;;;;;;;5100188;28;20278;-38
2023/08/27 14:09:08;;;;;;;2.73;1.20;;;;;;;;;;5098698;28;20206;-33
2023/08/27 14:11:39;;;;;;;1.40;1.30;;;;;;;;;;5101870;28;20214;-35
2023/08/27 14:14:06;;;;;;;1.47;1.33;;;;;;;;;;5103220;28;20218;-41
2023/08/27 14:16:33;;;;;;;1.77;1.60;;;;;;;;;;5092685;28;20203;-38
2023/08/27 14:19:00;;;;;;;1.30;1.20;;;;;;;;;;5100349;28;20208;-40
2023/08/27 14:21:27;;;;;;;1.57;1.13;;;;;;;;;;5101294;28;20503;-36
2023/08/27 14:23:54;;;;;;;1.20;1.10;;;;;;;;;;5102815;28;20245;-38
2023/08/27 14:26:22;;;;;;;1.23;1.10;;;;;;;;;;5101390;28;20205;-36
2023/08/27 14:28:50;;;;;;;1.50;1.40;;;;;;;;;;5105691;28;20214;-39
2023/08/27 14:31:17;;;;;;;1.63;1.27;;;;;;;;;;5103551;28;20226;-40
2023/08/27 14:33:44;;;;;;;1.13;1.13;;;;;;;;;;5094678;28;20578;-39
2023/08/27 14:36:11;;;;;;;2.30;1.33;;;;;;;;;;5104601;28;20210;-39
2023/08/27 14:38:40;;;;;;;1.60;1.50;;;;;;;;;;5092087;28;20260;-39
2023/08/27 14:41:07;;;;;;;1.77;1.40;;;;;;;;;;5100130;28;20217;-39
2023/08/27 14:43:35;;;;;;;1.30;1.20;;;;;;;;;;5106892;28;20201;-40
2023/08/27 14:46:04;;;;;;;3.03;1.50;;;;;;;;;;5096978;28;20205;-43
2023/08/27 14:48:31;;;;;;;1.27;1.17;;;;;;;;;;5106844;28;20197;-42
2023/08/27 14:50:59;;;;;;;1.53;1.13;;;;;;;;;;5106916;28;20210;-40
2023/08/27 14:53:26;;;;;;;1.10;1.10;;;;;;;;;;5076890;28;20216;-38
2023/08/27 14:55:53;;;;;;;3.07;1.57;;;;;;;;;;5085956;28;20205;-42
2023/08/27 14:58:20;;;;;;;1.57;1.43;;;;;;;;;;5089101;28;20216;-37
2023/08/27 15:00:49;;;;;;;2.50;1.40;;;;;;;;;;5085347;28;20227;-36
2023/08/27 15:03:17;;;;;;;2.30;1.30;;;;;;;;;;5080160;28;20199;-41
2023/08/27 15:05:44;;;;;;;1.93;1.30;;;;;;;;;;5089009;28;20212;-40
2023/08/27 15:08:11;;;;;;;1.47;1.37;;;;;;;;;;5084650;28;20210;-38
2023/08/27 15:10:38;;;;;;;3.03;1.20;;;;;;;;;;5090530;28;20194;-39
2023/08/27 15:13:06;;;;;;;1.27;1.17;;;;;;;;;;5092572;28;20226;-43
2023/08/27 15:15:33;;;;;;;1.10;1.10;;;;;;;;;;5092242;28;20202;-35
2023/08/27 15:18:02;;;;;;;1.53;0.90;;;;;;;;;;5090494;28;20224;-37
2023/08/27 15:20:29;;;;;;;0.90;0.90;;;;;;;;;;5111643;28;20219;-38
2023/08/27 15:22:56;;;;;;;2.23;1.00;;;;;;;;;;5091424;28;20226;-41
2023/08/27 15:25:23;;;;;;;1.00;1.00;;;;;;;;;;5095463;28;20236;-39
2023/08/27 15:27:50;;;;;;;2.87;1.30;;;;;;;;;;5099137;28;20216;-38
2023/08/27 15:30:17;;;;;;;2.23;1.00;;;;;;;;;;5187859;22;20231;-32
2023/08/27 15:32:44;;;;;;;1.50;1.40;;;;;;;;;;5101279;28;20528;-29
2023/08/27 15:35:16;;;;;;;1.47;1.27;;;;;;;;;;5106563;28;20221;-30
2023/08/27 15:37:43;;;;;;;1.20;1.10;;;;;;;;;;5108316;28;20198;-29
2023/08/27 15:40:10;;;;;;;1.47;1.30;;;;;;;;;;5131116;27;20232;-32
2023/08/27 15:42:50;;;;;;;1.70;1.13;;;;;;;;;;5094812;28;20225;-32
2023/08/27 15:45:17;;;;;;;2.77;1.20;;;;;;;;;;5095686;28;20288;-29
2023/08/27 15:47:47;;;;;;;1.27;1.17;;;;;;;;;;5094730;28;20293;-28
2023/08/27 15:50:16;;;;;;;1.40;1.30;;;;;;;;;;5092073;28;20189;-28
2023/08/27 15:52:44;;;;;;;1.23;1.17;;;;;;;;;;5100662;28;20277;-31